createdAt,value
2019-03-08T00:02:29.865Z,9.54
2019-03-08T00:05:01.596Z,9.46
2019-03-08T00:07:33.417Z,9.40
2019-03-08T00:10:05.384Z,9.37
2019-03-08T00:12:37.026Z,9.32
2019-03-08T00:15:09.195Z,9.32
2019-03-08T00:17:40.750Z,9.27
2019-03-08T00:20:14.047Z,9.23
2019-03-08T00:22:47.124Z,9.14
2019-03-08T00:25:19.052Z,9.13
2019-03-08T00:27:50.727Z,9.02
2019-03-08T00:30:22.266Z,9.00
2019-03-08T00:32:54.171Z,8.99
2019-03-08T00:35:25.715Z,8.93
2019-03-08T00:37:57.390Z,8.91
2019-03-08T00:40:29.124Z,8.85
2019-03-08T00:43:01.878Z,8.76
2019-03-08T00:45:33.690Z,8.80
2019-03-08T00:48:05.439Z,8.79
2019-03-08T00:50:36.984Z,8.74
2019-03-08T00:53:08.869Z,8.73
2019-03-08T00:55:40.789Z,8.76
2019-03-08T00:58:12.605Z,8.72
2019-03-08T01:00:44.966Z,8.73
2019-03-08T01:03:16.474Z,8.72
2019-03-08T01:05:48.077Z,8.66
2019-03-08T01:08:19.934Z,8.60
2019-03-08T01:10:51.506Z,8.65
2019-03-08T01:13:24.910Z,8.59
2019-03-08T01:15:56.777Z,8.68
2019-03-08T01:18:28.503Z,8.65
2019-03-08T01:21:00.076Z,8.62
2019-03-08T01:23:31.915Z,8.70
2019-03-08T01:26:03.976Z,8.66
2019-03-08T01:28:36.976Z,8.78
2019-03-08T01:31:09.055Z,8.91
2019-03-08T01:33:40.544Z,8.97
2019-03-08T01:36:12.431Z,9.06
2019-03-08T01:38:44.111Z,9.07
2019-03-08T01:41:15.806Z,9.11
2019-03-08T01:43:47.611Z,9.05
2019-03-08T01:46:19.434Z,9.03
2019-03-08T01:48:51.200Z,9.09
2019-03-08T01:51:22.985Z,9.07
2019-03-08T01:53:54.770Z,9.01
2019-03-08T01:56:26.509Z,8.96
2019-03-08T01:58:58.300Z,8.94
2019-03-08T02:01:30.000Z,8.90
2019-03-08T02:04:01.363Z,8.87
2019-03-08T02:06:32.990Z,8.81
2019-03-08T02:09:05.350Z,8.78
2019-03-08T02:11:38.816Z,8.85
2019-03-08T02:14:10.686Z,8.78
2019-03-08T02:16:42.411Z,8.76
2019-03-08T02:19:14.240Z,8.73
2019-03-08T02:21:45.597Z,8.73
2019-03-08T02:24:17.162Z,8.72
2019-03-08T02:26:48.696Z,8.68
2019-03-08T02:29:20.603Z,8.63
2019-03-08T02:31:52.170Z,8.66
2019-03-08T02:34:23.709Z,8.67
2019-03-08T02:36:55.299Z,8.67
2019-03-08T02:39:27.004Z,8.63
2019-03-08T02:41:58.455Z,8.56
2019-03-08T02:44:30.256Z,8.58
2019-03-08T02:47:02.207Z,8.57
2019-03-08T02:49:33.664Z,8.56
2019-03-08T02:52:05.384Z,8.53
2019-03-08T02:54:37.226Z,8.51
2019-03-08T02:57:08.756Z,8.48
2019-03-08T02:59:40.316Z,8.43
2019-03-08T03:02:12.025Z,8.42
2019-03-08T03:04:44.198Z,8.42
2019-03-08T03:07:15.739Z,8.41
2019-03-08T03:09:47.410Z,8.37
2019-03-08T03:12:19.047Z,8.45
2019-03-08T03:14:50.808Z,8.44
2019-03-08T03:17:22.340Z,8.43
2019-03-08T03:19:54.035Z,8.41
2019-03-08T03:22:25.824Z,8.39
2019-03-08T03:24:57.353Z,8.36
2019-03-08T03:27:30.965Z,8.34
2019-03-08T03:30:02.649Z,8.34
2019-03-08T03:32:34.113Z,8.37
2019-03-08T03:35:06.015Z,8.33
2019-03-08T03:37:37.872Z,8.32
2019-03-08T03:40:10.727Z,8.28
2019-03-08T03:42:42.314Z,8.29
2019-03-08T03:45:14.214Z,8.23
2019-03-08T03:47:45.713Z,8.25
2019-03-08T03:50:18.545Z,8.18
2019-03-08T03:52:50.773Z,8.14
2019-03-08T03:55:22.519Z,8.09
2019-03-08T03:57:54.090Z,8.05
2019-03-08T04:00:25.863Z,8.08
2019-03-08T04:02:57.960Z,8.04
2019-03-08T04:05:29.545Z,8.08
2019-03-08T04:08:01.749Z,8.07
2019-03-08T04:10:33.578Z,8.04
2019-03-08T04:13:05.159Z,8.05
2019-03-08T04:15:36.830Z,8.00
2019-03-08T04:18:08.410Z,7.99
2019-03-08T04:20:39.951Z,7.99
2019-03-08T04:23:11.458Z,8.00
2019-03-08T04:25:43.470Z,8.00
2019-03-08T04:28:15.182Z,7.96
2019-03-08T04:30:47.680Z,7.99
2019-03-08T04:33:19.111Z,7.95
2019-03-08T04:35:50.594Z,7.95
2019-03-08T04:38:22.307Z,7.91
2019-03-08T04:40:54.124Z,7.91
2019-03-08T04:43:25.625Z,7.88
2019-03-08T04:45:57.135Z,7.84
2019-03-08T04:48:28.937Z,7.85
2019-03-08T04:51:00.716Z,7.94
2019-03-08T04:53:32.383Z,7.88
2019-03-08T04:56:04.234Z,7.86
2019-03-08T04:58:35.928Z,7.85
2019-03-08T05:01:07.808Z,7.93
2019-03-08T05:03:39.296Z,7.94
2019-03-08T05:06:11.090Z,7.99
2019-03-08T05:08:43.241Z,8.08
2019-03-08T05:11:14.794Z,8.03
2019-03-08T05:13:46.152Z,8.04
2019-03-08T05:16:17.994Z,8.04
2019-03-08T05:18:49.453Z,8.01
2019-03-08T05:21:21.211Z,8.01
2019-03-08T05:23:52.765Z,8.00
2019-03-08T05:26:24.644Z,8.00
2019-03-08T05:28:56.329Z,8.07
2019-03-08T05:31:27.826Z,8.07
2019-03-08T05:33:59.448Z,8.05
2019-03-08T05:36:30.955Z,8.01
2019-03-08T05:39:02.686Z,8.08
2019-03-08T05:41:35.835Z,8.10
2019-03-08T05:44:07.391Z,8.17
2019-03-08T05:46:39.008Z,8.16
2019-03-08T05:49:10.565Z,8.22
2019-03-08T05:51:42.122Z,8.21
2019-03-08T05:54:13.535Z,8.27
2019-03-08T05:56:45.126Z,8.28
2019-03-08T05:59:16.932Z,8.35
2019-03-08T06:01:48.451Z,8.42
2019-03-08T06:04:21.204Z,8.45
2019-03-08T06:06:53.756Z,8.49
2019-03-08T06:09:25.352Z,8.55
2019-03-08T06:11:57.126Z,8.60
2019-03-08T06:14:28.711Z,8.62
2019-03-08T06:17:02.074Z,8.69
2019-03-08T06:19:33.791Z,8.76
2019-03-08T06:22:05.693Z,8.80
2019-03-08T06:24:37.388Z,8.86
2019-03-08T06:27:09.407Z,8.95
2019-03-08T06:29:41.074Z,9.00
2019-03-08T06:32:12.348Z,9.01
2019-03-08T06:34:43.938Z,9.13
2019-03-08T06:37:15.572Z,9.64
2019-03-08T06:39:47.270Z,10.80
2019-03-08T06:42:19.092Z,11.80
2019-03-08T06:44:50.665Z,11.99
2019-03-08T06:47:22.303Z,12.26
2019-03-08T06:49:53.926Z,11.51
2019-03-08T06:52:26.401Z,11.63
2019-03-08T06:54:57.876Z,12.04
2019-03-08T06:57:29.354Z,11.44
2019-03-08T07:00:02.886Z,12.25
2019-03-08T07:02:36.160Z,11.70
2019-03-08T07:05:08.644Z,11.21
2019-03-08T07:07:40.571Z,11.12
2019-03-08T07:10:12.626Z,11.35
2019-03-08T07:12:44.110Z,11.80
2019-03-08T07:15:15.513Z,11.65
2019-03-08T07:17:48.319Z,11.15
2019-03-08T07:20:30.318Z,10.80
2019-03-08T07:23:04.114Z,10.94
2019-03-08T07:25:40.974Z,10.78
2019-03-08T07:28:17.092Z,10.91
2019-03-08T07:30:57.701Z,11.07
2019-03-08T07:33:25.267Z,10.99
2019-03-08T07:35:58.836Z,10.91
2019-03-08T07:38:49.987Z,10.82
2019-03-08T07:41:28.839Z,11.18
2019-03-08T07:44:15.223Z,11.28
2019-03-08T07:46:51.106Z,11.02
2019-03-08T07:49:39.856Z,11.92
2019-03-08T07:52:16.029Z,12.36
2019-03-08T07:54:52.960Z,11.97
2019-03-08T07:57:23.945Z,10.89
2019-03-08T08:00:13.586Z,10.88
2019-03-08T08:02:46.665Z,10.98
2019-03-08T08:05:26.036Z,11.10
2019-03-08T08:08:18.303Z,11.09
2019-03-08T08:11:07.893Z,11.81
2019-03-08T08:13:41.013Z,11.92
2019-03-08T08:16:17.334Z,12.00
2019-03-08T08:18:53.133Z,11.73
2019-03-08T08:21:32.449Z,12.09
2019-03-08T08:24:08.238Z,11.79
2019-03-08T08:26:44.134Z,12.28
2019-03-08T08:29:17.351Z,12.59
2019-03-08T08:31:56.881Z,12.46
2019-03-08T08:34:32.637Z,12.79
2019-03-08T08:37:23.801Z,13.24
2019-03-08T08:39:59.886Z,12.46
2019-03-08T08:42:35.798Z,11.57
2019-03-08T08:45:10.873Z,11.73
2019-03-08T08:47:56.156Z,12.03
2019-03-08T08:50:32.679Z,11.77
2019-03-08T08:53:11.947Z,11.82
2019-03-08T08:55:45.377Z,11.52
2019-03-08T08:58:21.632Z,11.52
2019-03-08T09:01:07.373Z,11.27
2019-03-08T09:03:46.698Z,11.34
2019-03-08T09:06:38.474Z,11.33
2019-03-08T09:09:15.295Z,11.24
2019-03-08T09:11:52.757Z,11.19
2019-03-08T09:14:32.773Z,11.17
2019-03-08T09:17:11.642Z,11.17
2019-03-08T09:19:44.918Z,11.23
2019-03-08T09:22:34.728Z,11.15
2019-03-08T09:25:08.664Z,11.17
2019-03-08T09:27:45.097Z,11.12
2019-03-08T09:30:30.794Z,11.18
2019-03-08T09:33:06.873Z,11.26
2019-03-08T09:35:43.210Z,11.23
2019-03-08T09:38:17.550Z,11.33
2019-03-08T09:41:08.215Z,11.61
2019-03-08T09:43:47.386Z,11.83
2019-03-08T09:46:23.985Z,11.56
2019-03-08T09:49:06.074Z,11.50
2019-03-08T09:51:42.359Z,11.41
2019-03-08T09:54:32.225Z,11.59
2019-03-08T09:57:05.552Z,11.74
2019-03-08T09:59:54.723Z,12.02
2019-03-08T10:02:42.900Z,11.68
2019-03-08T10:05:32.156Z,11.61
2019-03-08T10:08:08.567Z,11.52
2019-03-08T10:10:41.859Z,11.42
2019-03-08T10:13:31.963Z,11.29
2019-03-08T10:16:05.140Z,11.15
2019-03-08T10:18:53.919Z,11.10
2019-03-08T10:21:39.314Z,11.05
2019-03-08T10:24:18.295Z,11.09
2019-03-08T10:26:51.781Z,11.12
2019-03-08T10:29:36.727Z,11.12
2019-03-08T10:32:12.916Z,11.10
2019-03-08T10:35:02.609Z,11.16
2019-03-08T10:37:39.513Z,11.16
2019-03-08T10:40:12.967Z,11.13
2019-03-08T10:42:52.842Z,11.11
2019-03-08T10:45:32.317Z,11.05
2019-03-08T10:48:17.420Z,10.90
2019-03-08T10:51:02.634Z,10.74
2019-03-08T10:54:00.354Z,10.66
2019-03-08T10:56:45.331Z,10.63
2019-03-08T10:59:18.642Z,10.53
2019-03-08T11:02:08.353Z,10.34
2019-03-08T11:04:41.845Z,10.29
2019-03-08T11:07:24.163Z,10.21
2019-03-08T11:10:03.468Z,10.18
2019-03-08T11:12:37.087Z,10.13
2019-03-08T11:15:24.840Z,10.02
2019-03-08T11:17:58.451Z,9.98
2019-03-08T11:20:47.896Z,9.99
2019-03-08T11:23:24.802Z,10.01
2019-03-08T11:25:58.462Z,9.95
2019-03-08T11:28:34.910Z,10.01
2019-03-08T11:31:08.463Z,9.97
2019-03-08T11:33:41.814Z,10.08
2019-03-08T11:36:31.827Z,10.09
2019-03-08T11:39:13.744Z,10.11
2019-03-08T11:41:46.890Z,10.20
2019-03-08T11:44:23.169Z,10.31
2019-03-08T11:46:59.540Z,10.39
2019-03-08T11:49:49.385Z,10.48
2019-03-08T11:52:23.473Z,10.57
2019-03-08T11:54:56.951Z,10.55
2019-03-08T11:57:42.525Z,10.63
2019-03-08T12:00:16.092Z,10.64
2019-03-08T12:02:49.577Z,10.71
2019-03-08T12:05:26.262Z,10.61
2019-03-08T12:08:08.237Z,10.65
2019-03-08T12:10:44.997Z,10.71
2019-03-08T12:13:28.502Z,10.75
2019-03-08T12:16:06.161Z,10.79
2019-03-08T12:18:48.626Z,10.87
2019-03-08T12:21:21.944Z,10.94
2019-03-08T12:23:59.826Z,10.95
2019-03-08T12:26:49.233Z,10.92
2019-03-08T12:29:25.535Z,10.89
2019-03-08T12:32:18.173Z,10.94
2019-03-08T12:34:54.331Z,11.06
2019-03-08T12:37:44.362Z,11.14
2019-03-08T12:40:18.920Z,11.11
2019-03-08T12:42:58.310Z,11.01
2019-03-08T12:45:45.241Z,10.91
2019-03-08T12:48:35.036Z,11.07
2019-03-08T12:51:11.008Z,11.08
2019-03-08T12:53:50.366Z,11.02
2019-03-08T12:56:30.065Z,11.11
2019-03-08T12:59:18.505Z,11.37
2019-03-08T13:02:00.433Z,11.25
2019-03-08T13:04:33.361Z,11.06
2019-03-08T13:07:07.228Z,10.95
2019-03-08T13:09:44.173Z,10.94
2019-03-08T13:12:15.953Z,11.18
2019-03-08T13:14:47.422Z,11.25
2019-03-08T13:17:19.296Z,11.29
2019-03-08T13:19:50.973Z,11.24
2019-03-08T13:22:22.448Z,11.12
2019-03-08T13:24:53.846Z,11.10
2019-03-08T13:27:25.535Z,11.04
2019-03-08T13:29:57.588Z,11.00
2019-03-08T13:32:29.083Z,11.01
2019-03-08T13:35:00.455Z,10.98
2019-03-08T13:37:32.096Z,11.04
2019-03-08T13:40:03.574Z,11.02
2019-03-08T13:42:35.434Z,11.07
2019-03-08T13:45:10.473Z,11.13
2019-03-08T13:47:41.946Z,11.14
2019-03-08T13:50:14.305Z,11.10
2019-03-08T13:52:46.166Z,11.07
2019-03-08T13:55:17.870Z,11.04
2019-03-08T13:57:49.769Z,11.03
2019-03-08T14:00:21.692Z,11.00
2019-03-08T14:02:53.264Z,10.93
2019-03-08T14:05:25.093Z,10.82
2019-03-08T14:07:56.876Z,10.74
2019-03-08T14:10:28.460Z,10.75
2019-03-08T14:13:00.338Z,10.76
2019-03-08T14:15:32.067Z,10.58
2019-03-08T14:18:03.882Z,10.54
2019-03-08T14:20:35.732Z,10.50
2019-03-08T14:23:07.345Z,10.40
2019-03-08T14:25:40.794Z,10.46
2019-03-08T14:28:12.671Z,10.49
2019-03-08T14:30:57.686Z,10.43
2019-03-08T14:33:25.067Z,10.36
2019-03-08T14:35:57.084Z,10.07
2019-03-08T14:38:31.417Z,9.93
2019-03-08T14:41:05.193Z,10.05
2019-03-08T14:43:48.982Z,10.14
2019-03-08T14:46:26.397Z,10.19
2019-03-08T14:48:57.941Z,10.46
2019-03-08T14:51:29.796Z,10.62
2019-03-08T14:54:01.549Z,10.47
2019-03-08T14:56:35.913Z,10.43
2019-03-08T14:59:06.556Z,10.41
2019-03-08T15:01:40.259Z,10.42
2019-03-08T15:04:12.643Z,10.31
2019-03-08T15:06:44.355Z,10.29
2019-03-08T15:09:16.271Z,10.21
2019-03-08T15:11:48.034Z,10.07
2019-03-08T15:14:21.414Z,9.99
2019-03-08T15:16:53.003Z,10.06
2019-03-08T15:19:24.854Z,10.06
2019-03-08T15:21:56.287Z,10.04
2019-03-08T15:24:27.873Z,9.93
2019-03-08T15:26:59.549Z,10.05
2019-03-08T15:29:31.086Z,10.08
2019-03-08T15:32:03.147Z,10.05
2019-03-08T15:34:34.643Z,10.10
2019-03-08T15:37:07.379Z,10.05
2019-03-08T15:39:38.825Z,10.02
2019-03-08T15:42:10.312Z,9.94
2019-03-08T15:44:43.035Z,9.86
2019-03-08T15:47:23.230Z,9.74
2019-03-08T15:49:48.983Z,9.70
2019-03-08T15:52:20.769Z,9.69
2019-03-08T15:54:52.348Z,9.64
2019-03-08T15:57:24.948Z,9.63
2019-03-08T15:59:56.637Z,9.61
2019-03-08T16:02:28.171Z,9.56
2019-03-08T16:04:59.567Z,9.58
2019-03-08T16:07:31.320Z,9.57
2019-03-08T16:10:02.899Z,9.52
2019-03-08T16:12:35.783Z,9.53
2019-03-08T16:15:07.725Z,9.48
2019-03-08T16:17:39.564Z,9.48
2019-03-08T16:20:12.847Z,9.43
2019-03-08T16:22:44.753Z,9.38
2019-03-08T16:25:17.243Z,9.36
2019-03-08T16:27:49.779Z,9.37
2019-03-08T16:30:36.222Z,9.36
2019-03-08T16:33:11.111Z,9.33
2019-03-08T16:35:46.931Z,9.36
2019-03-08T16:38:19.670Z,9.33
2019-03-08T16:40:55.651Z,9.35
2019-03-08T16:43:34.186Z,9.32
2019-03-08T16:46:23.307Z,9.28
2019-03-08T16:49:14.802Z,9.20
2019-03-08T16:51:46.411Z,9.12
2019-03-08T16:54:31.137Z,9.05
2019-03-08T16:57:15.583Z,8.98
2019-03-08T17:00:00.803Z,8.98
2019-03-08T17:02:41.740Z,8.97
2019-03-08T17:05:15.362Z,8.91
2019-03-08T17:08:05.001Z,8.84
2019-03-08T17:10:44.463Z,8.81
2019-03-08T17:13:34.952Z,8.87
2019-03-08T17:16:08.313Z,8.90
2019-03-08T17:18:53.533Z,8.85
2019-03-08T17:21:28.458Z,8.79
2019-03-08T17:24:17.625Z,8.75
2019-03-08T17:26:50.996Z,8.71
2019-03-08T17:29:24.316Z,8.76
2019-03-08T17:31:58.193Z,8.73
2019-03-08T17:34:34.250Z,8.64
2019-03-08T17:37:23.786Z,8.55
2019-03-08T17:40:06.556Z,8.56
2019-03-08T17:42:52.173Z,8.48
2019-03-08T17:45:28.380Z,8.50
2019-03-08T17:48:10.682Z,8.45
2019-03-08T17:51:00.438Z,8.42
2019-03-08T17:53:39.152Z,8.33
2019-03-08T17:56:15.474Z,8.31
2019-03-08T17:58:52.319Z,8.28
2019-03-08T18:01:25.716Z,8.26
2019-03-08T18:04:08.275Z,8.20
2019-03-08T18:06:53.707Z,8.21
2019-03-08T18:09:27.317Z,8.20
2019-03-08T18:12:00.883Z,8.21
2019-03-08T18:14:36.807Z,8.30
2019-03-08T18:17:15.598Z,8.25
2019-03-08T18:20:04.103Z,8.18
2019-03-08T18:22:55.814Z,8.13
2019-03-08T18:25:29.263Z,8.11
2019-03-08T18:28:02.683Z,8.12
2019-03-08T18:30:51.090Z,8.07
2019-03-08T18:33:40.475Z,8.09
2019-03-08T18:36:16.595Z,8.03
2019-03-08T18:38:50.190Z,8.04
2019-03-08T18:41:23.647Z,8.06
2019-03-08T18:43:57.168Z,8.07
2019-03-08T18:46:45.377Z,8.03
2019-03-08T18:49:18.567Z,7.93
2019-03-08T18:52:01.011Z,7.95
2019-03-08T18:54:40.000Z,7.96
2019-03-08T18:57:26.048Z,7.96
2019-03-08T19:00:09.350Z,7.93
2019-03-08T19:02:51.826Z,7.89
2019-03-08T19:05:28.255Z,7.88
2019-03-08T19:08:17.064Z,7.88
2019-03-08T19:10:53.519Z,7.82
2019-03-08T19:13:42.604Z,7.77
2019-03-08T19:16:25.003Z,7.77
2019-03-08T19:18:58.411Z,7.74
2019-03-08T19:21:31.496Z,7.68
2019-03-08T19:24:23.324Z,7.63
2019-03-08T19:27:12.385Z,7.61
2019-03-08T19:29:58.246Z,7.58
2019-03-08T19:32:40.625Z,7.61
2019-03-08T19:35:23.064Z,7.66
2019-03-08T19:37:56.587Z,7.69
2019-03-08T19:40:41.658Z,7.76
2019-03-08T19:43:24.345Z,7.74
2019-03-08T19:46:01.201Z,7.72
2019-03-08T19:48:49.596Z,7.70
2019-03-08T19:51:25.869Z,7.65
2019-03-08T19:54:15.448Z,7.54
2019-03-08T19:57:04.883Z,7.51
2019-03-08T19:59:44.165Z,7.47
2019-03-08T20:02:41.804Z,7.43
2019-03-08T20:05:20.855Z,7.40
2019-03-08T20:07:53.969Z,7.33
2019-03-08T20:10:33.531Z,7.28
2019-03-08T20:13:07.268Z,7.28
2019-03-08T20:15:42.960Z,7.20
2019-03-08T20:18:28.244Z,7.20
2019-03-08T20:21:10.907Z,7.13
2019-03-08T20:23:56.954Z,7.15
2019-03-08T20:26:30.220Z,7.19
2019-03-08T20:29:19.445Z,7.15
2019-03-08T20:31:58.817Z,7.13
2019-03-08T20:34:47.710Z,7.12
2019-03-08T20:37:33.278Z,7.13
2019-03-08T20:40:13.645Z,7.14
2019-03-08T20:43:02.052Z,7.06
2019-03-08T20:45:35.788Z,7.06
2019-03-08T20:48:07.501Z,7.04
2019-03-08T20:50:39.348Z,7.04
2019-03-08T20:53:10.862Z,7.01
2019-03-08T20:55:42.726Z,6.97
2019-03-08T20:58:14.796Z,6.89
2019-03-08T21:00:45.482Z,6.89
2019-03-08T21:03:16.844Z,6.78
2019-03-08T21:05:47.233Z,6.79
2019-03-08T21:08:17.519Z,6.75
2019-03-08T21:10:47.806Z,6.74
2019-03-08T21:13:18.243Z,6.74
2019-03-08T21:15:48.967Z,6.69
2019-03-08T21:18:19.260Z,6.70
2019-03-08T21:20:49.709Z,6.72
2019-03-08T21:23:19.805Z,6.72
2019-03-08T21:25:50.315Z,6.71
2019-03-08T21:28:20.847Z,6.71
2019-03-08T21:30:51.217Z,6.64
2019-03-08T21:33:21.674Z,6.65
2019-03-08T21:35:52.136Z,6.64
2019-03-08T21:38:22.710Z,6.55
2019-03-08T21:40:53.336Z,6.58
2019-03-08T21:43:24.282Z,6.51
2019-03-08T21:45:54.702Z,6.53
2019-03-08T21:48:25.228Z,6.52
2019-03-08T21:50:55.521Z,6.48
2019-03-08T21:53:25.722Z,6.42
2019-03-08T21:55:56.598Z,6.47
2019-03-08T21:58:27.282Z,6.43
2019-03-08T22:00:57.735Z,6.32
2019-03-08T22:03:28.143Z,6.19
2019-03-08T22:05:59.651Z,6.12
2019-03-08T22:08:30.146Z,6.08
2019-03-08T22:11:05.068Z,5.91
2019-03-08T22:13:36.039Z,5.89
2019-03-08T22:16:06.267Z,5.78
2019-03-08T22:18:37.529Z,5.64
2019-03-08T22:21:09.050Z,5.65
2019-03-08T22:23:39.523Z,5.67
2019-03-08T22:26:10.155Z,5.53
2019-03-08T22:28:40.580Z,5.45
2019-03-08T22:31:10.934Z,5.42
2019-03-08T22:33:41.377Z,5.37
2019-03-08T22:36:11.960Z,5.37
2019-03-08T22:38:42.225Z,5.39
2019-03-08T22:41:12.368Z,5.42
2019-03-08T22:43:43.629Z,5.32
2019-03-08T22:46:14.183Z,5.35
2019-03-08T22:48:44.780Z,5.25
2019-03-08T22:51:15.071Z,5.19
2019-03-08T22:53:46.042Z,5.10
2019-03-08T22:56:16.277Z,5.11
2019-03-08T22:58:46.768Z,5.06
2019-03-08T23:01:19.456Z,5.06
2019-03-08T23:03:51.362Z,5.01
2019-03-08T23:06:21.971Z,5.05
2019-03-08T23:08:52.249Z,4.96
2019-03-08T23:11:22.436Z,5.08
2019-03-08T23:13:52.679Z,5.00
2019-03-08T23:16:23.037Z,4.97
2019-03-08T23:18:53.526Z,4.93
2019-03-08T23:21:24.160Z,4.92
2019-03-08T23:23:54.655Z,4.98
2019-03-08T23:26:25.225Z,5.04
2019-03-08T23:29:00.206Z,4.91
2019-03-08T23:31:40.807Z,4.92
2019-03-08T23:34:11.101Z,4.95
2019-03-08T23:36:41.587Z,4.97
2019-03-08T23:39:11.892Z,4.89
2019-03-08T23:41:42.279Z,4.76
2019-03-08T23:44:12.603Z,4.89
2019-03-08T23:46:42.781Z,4.90
2019-03-08T23:49:13.256Z,4.89
2019-03-08T23:51:43.564Z,4.87
2019-03-08T23:54:14.073Z,4.81
2019-03-08T23:56:44.519Z,4.82
2019-03-08T23:59:15.002Z,4.86
